Time;durP1;ratioP1;P1;durP2;ratioP2;P2;SDS_P1;SDS_P2;PMS_P1;PMS_P2;Temp;Humidity;BMP_temperature;BMP_pressure;BME280_temperature;BME280_humidity;BME280_pressure;Samples;Min_cycle;Max_cycle;Signal;HPM_P1;HPM_P2
2024/01/08 00:00:48;;;;;;;4.05;3.60;;;;;;;;;;5001189;28;95820;-64
2024/01/08 00:03:14;;;;;;;3.20;3.00;;;;;;;;;;5006933;28;92557;-64
2024/01/08 00:05:41;;;;;;;3.70;3.25;;;;;;;;;;5000643;28;94749;-64
2024/01/08 00:08:07;;;;;;;4.28;3.78;;;;;;;;;;4999684;28;92467;-64
2024/01/08 00:10:37;;;;;;;4.63;3.60;;;;;;;;;;5004730;28;93653;-64
2024/01/08 00:13:04;;;;;;;4.38;3.53;;;;;;;;;;5004802;28;93351;-64
2024/01/08 00:15:31;;;;;;;3.90;3.50;;;;;;;;;;5001774;28;92909;-64
2024/01/08 00:17:57;;;;;;;4.15;3.60;;;;;;;;;;5002448;28;93122;-65
2024/01/08 00:20:24;;;;;;;9.50;3.67;;;;;;;;;;5004450;28;93325;-64
2024/01/08 00:22:50;;;;;;;4.78;3.58;;;;;;;;;;5000931;28;92490;-64
2024/01/08 00:25:21;;;;;;;4.00;3.13;;;;;;;;;;5007039;28;95154;-64
2024/01/08 00:27:50;;;;;;;4.90;3.67;;;;;;;;;;4999593;28;92596;-64
2024/01/08 00:30:17;;;;;;;5.65;3.35;;;;;;;;;;4999917;28;93120;-64
2024/01/08 00:32:43;;;;;;;4.20;3.40;;;;;;;;;;5000553;28;93609;-74
2024/01/08 00:35:10;;;;;;;5.50;3.30;;;;;;;;;;5002605;28;93862;-73
2024/01/08 00:37:38;;;;;;;8.40;4.00;;;;;;;;;;4998721;28;93292;-72
2024/01/08 00:40:05;;;;;;;5.63;3.50;;;;;;;;;;5001212;28;93910;-72
2024/01/08 00:42:32;;;;;;;6.50;3.58;;;;;;;;;;5003662;28;92259;-74
2024/01/08 00:44:58;;;;;;;4.63;2.97;;;;;;;;;;5011423;28;92403;-74
2024/01/08 00:47:24;;;;;;;5.90;3.70;;;;;;;;;;5005070;28;93421;-73
2024/01/08 00:49:51;;;;;;;3.78;3.08;;;;;;;;;;5006223;28;95063;-72
2024/01/08 00:52:17;;;;;;;3.92;3.30;;;;;;;;;;5002838;28;94101;-71
2024/01/08 00:54:44;;;;;;;4.95;3.78;;;;;;;;;;5003052;28;92572;-74
2024/01/08 00:57:11;;;;;;;7.28;3.30;;;;;;;;;;5001971;28;94132;-72
2024/01/08 00:59:37;;;;;;;4.07;3.08;;;;;;;;;;5001970;28;93552;-73
2024/01/08 01:02:03;;;;;;;4.50;3.80;;;;;;;;;;5001181;28;92780;-72
2024/01/08 01:04:30;;;;;;;3.40;3.10;;;;;;;;;;5002781;28;93513;-72
2024/01/08 01:06:57;;;;;;;5.22;4.03;;;;;;;;;;4999660;28;93001;-71
2024/01/08 01:09:23;;;;;;;6.40;3.08;;;;;;;;;;5006184;28;92549;-72
2024/01/08 01:11:50;;;;;;;5.43;3.28;;;;;;;;;;5002197;28;94012;-73
2024/01/08 01:14:16;;;;;;;3.28;2.97;;;;;;;;;;5001899;28;96631;-72
2024/01/08 01:16:42;;;;;;;4.10;3.70;;;;;;;;;;5001342;28;95834;-74
2024/01/08 01:19:09;;;;;;;6.15;3.70;;;;;;;;;;5005497;28;94386;-74
2024/01/08 01:21:36;;;;;;;5.63;3.58;;;;;;;;;;5002373;28;92853;-73
2024/01/08 01:24:04;;;;;;;5.03;3.58;;;;;;;;;;5003310;28;93931;-73
2024/01/08 01:26:31;;;;;;;9.15;3.53;;;;;;;;;;5000266;28;93810;-73
2024/01/08 01:28:58;;;;;;;3.78;3.30;;;;;;;;;;5005081;28;93663;-72
2024/01/08 01:31:25;;;;;;;4.35;3.92;;;;;;;;;;5008450;28;93185;-73
2024/01/08 01:33:51;;;;;;;4.43;3.25;;;;;;;;;;5004586;28;92479;-73
2024/01/08 01:36:17;;;;;;;6.15;3.58;;;;;;;;;;4998869;28;93212;-74
2024/01/08 01:38:44;;;;;;;6.85;4.10;;;;;;;;;;5000161;28;96231;-73
2024/01/08 01:41:11;;;;;;;5.50;3.55;;;;;;;;;;4993856;28;92776;-73
2024/01/08 01:43:38;;;;;;;5.60;3.67;;;;;;;;;;4998950;28;93052;-64
2024/01/08 01:46:07;;;;;;;4.95;3.70;;;;;;;;;;4996955;28;93436;-65
2024/01/08 01:48:34;;;;;;;6.00;3.55;;;;;;;;;;5001972;28;93004;-64
2024/01/08 01:51:02;;;;;;;6.07;3.60;;;;;;;;;;5004377;28;92459;-64
2024/01/08 01:53:29;;;;;;;4.50;3.92;;;;;;;;;;5002582;28;92432;-64
2024/01/08 01:55:55;;;;;;;4.38;3.80;;;;;;;;;;5006022;28;93332;-64
2024/01/08 01:58:22;;;;;;;4.75;3.80;;;;;;;;;;4993202;28;93875;-64
2024/01/08 02:00:48;;;;;;;3.92;3.22;;;;;;;;;;5000842;28;92538;-64
2024/01/08 02:03:15;;;;;;;6.95;3.70;;;;;;;;;;4994994;28;94958;-64
2024/01/08 02:05:42;;;;;;;6.00;4.00;;;;;;;;;;5003054;28;92763;-65
2024/01/08 02:08:08;;;;;;;6.63;3.72;;;;;;;;;;5006643;28;92385;-65
2024/01/08 02:10:36;;;;;;;6.15;3.95;;;;;;;;;;4999065;28;95388;-64
2024/01/08 02:13:03;;;;;;;3.95;3.50;;;;;;;;;;5001658;28;93359;-65
2024/01/08 02:15:29;;;;;;;4.20;3.60;;;;;;;;;;5002459;28;93156;-64
2024/01/08 02:17:55;;;;;;;6.50;3.95;;;;;;;;;;5001442;28;94439;-65
2024/01/08 02:20:22;;;;;;;4.00;3.60;;;;;;;;;;4997551;28;91968;-65
2024/01/08 02:22:48;;;;;;;6.00;3.97;;;;;;;;;;5003040;28;92824;-64
2024/01/08 02:25:15;;;;;;;8.82;3.83;;;;;;;;;;5003281;28;93496;-64
2024/01/08 02:27:41;;;;;;;5.15;3.72;;;;;;;;;;5003067;28;94851;-65
2024/01/08 02:30:08;;;;;;;4.57;3.50;;;;;;;;;;5003993;28;95483;-65
2024/01/08 02:32:35;;;;;;;8.40;3.67;;;;;;;;;;5001115;28;94670;-64
2024/01/08 02:35:01;;;;;;;6.85;4.03;;;;;;;;;;5003506;28;92885;-65
2024/01/08 02:37:28;;;;;;;8.63;4.00;;;;;;;;;;5001790;28;93515;-64
2024/01/08 02:39:54;;;;;;;8.52;3.40;;;;;;;;;;4997040;28;92543;-65
2024/01/08 02:42:21;;;;;;;8.85;4.22;;;;;;;;;;5002601;28;93153;-64
2024/01/08 02:44:47;;;;;;;4.72;3.83;;;;;;;;;;5004389;28;92704;-65
2024/01/08 02:47:14;;;;;;;4.85;3.80;;;;;;;;;;4996436;28;92588;-64
2024/01/08 02:49:40;;;;;;;8.68;3.53;;;;;;;;;;4998142;28;93405;-64
2024/01/08 02:52:06;;;;;;;3.97;3.58;;;;;;;;;;4998620;28;98119;-64
2024/01/08 02:54:33;;;;;;;5.20;3.88;;;;;;;;;;4999330;28;92708;-72
2024/01/08 02:56:59;;;;;;;6.80;3.70;;;;;;;;;;5001492;28;96739;-74
2024/01/08 02:59:26;;;;;;;5.72;4.13;;;;;;;;;;4996538;28;92692;-73
2024/01/08 03:01:52;;;;;;;7.43;4.03;;;;;;;;;;4998576;28;93996;-73
2024/01/08 03:04:19;;;;;;;5.63;3.95;;;;;;;;;;5002726;28;94442;-73
2024/01/08 03:06:45;;;;;;;7.07;4.03;;;;;;;;;;5000029;28;92503;-73
2024/01/08 03:09:12;;;;;;;11.40;3.90;;;;;;;;;;4999202;28;93113;-73
2024/01/08 03:11:38;;;;;;;6.93;3.90;;;;;;;;;;5004631;28;93411;-73
2024/01/08 03:14:04;;;;;;;5.35;4.05;;;;;;;;;;4996202;28;92568;-73
2024/01/08 03:16:31;;;;;;;6.20;3.78;;;;;;;;;;4999958;28;95388;-73
2024/01/08 03:18:57;;;;;;;5.93;3.75;;;;;;;;;;5002810;28;93417;-73
2024/01/08 03:21:24;;;;;;;11.40;3.88;;;;;;;;;;5001015;28;94201;-73
2024/01/08 03:23:50;;;;;;;7.05;4.55;;;;;;;;;;4999913;28;94810;-74
2024/01/08 03:26:16;;;;;;;8.07;4.20;;;;;;;;;;4997836;28;92373;-74
2024/01/08 03:28:43;;;;;;;5.95;4.05;;;;;;;;;;4997616;28;93965;-72
2024/01/08 03:31:09;;;;;;;6.95;4.38;;;;;;;;;;5001704;28;93348;-74
2024/01/08 03:33:36;;;;;;;8.35;3.95;;;;;;;;;;4998871;28;91710;-73
2024/01/08 03:36:02;;;;;;;8.38;3.90;;;;;;;;;;4996456;28;93385;-72
2024/01/08 03:38:29;;;;;;;7.57;4.38;;;;;;;;;;5003084;28;93616;-72
2024/01/08 03:40:55;;;;;;;6.45;4.05;;;;;;;;;;5003218;28;95121;-74
2024/01/08 03:43:22;;;;;;;7.82;4.28;;;;;;;;;;4993460;28;94125;-73
2024/01/08 03:45:48;;;;;;;6.00;4.25;;;;;;;;;;5001873;28;92704;-73
2024/01/08 03:48:14;;;;;;;5.65;3.90;;;;;;;;;;4996402;28;93159;-73
2024/01/08 03:50:41;;;;;;;9.80;4.35;;;;;;;;;;4997162;28;93401;-72
2024/01/08 03:53:07;;;;;;;8.88;4.70;;;;;;;;;;4997590;28;93147;-74
2024/01/08 03:55:34;;;;;;;6.60;4.13;;;;;;;;;;4999066;28;94142;-72
2024/01/08 03:58:01;;;;;;;8.18;4.03;;;;;;;;;;4996647;28;92691;-73
2024/01/08 04:00:27;;;;;;;6.90;4.07;;;;;;;;;;5004161;28;92523;-73
2024/01/08 04:02:53;;;;;;;4.90;3.75;;;;;;;;;;5001682;28;93401;-74
2024/01/08 04:05:20;;;;;;;6.20;3.92;;;;;;;;;;4995241;28;97315;-64
2024/01/08 04:07:47;;;;;;;8.18;3.97;;;;;;;;;;5002747;28;96729;-64
2024/01/08 04:10:13;;;;;;;6.20;3.45;;;;;;;;;;4997758;28;93797;-64
2024/01/08 04:12:39;;;;;;;4.90;3.80;;;;;;;;;;4998851;28;92580;-64
2024/01/08 04:15:06;;;;;;;6.55;4.15;;;;;;;;;;4998436;28;93288;-64
2024/01/08 04:17:33;;;;;;;6.22;3.72;;;;;;;;;;4996595;28;93632;-64
2024/01/08 04:19:59;;;;;;;5.93;4.22;;;;;;;;;;5002079;28;92463;-64
2024/01/08 04:22:26;;;;;;;9.50;4.60;;;;;;;;;;4999359;28;93413;-63
2024/01/08 04:24:52;;;;;;;6.65;4.45;;;;;;;;;;4998590;28;92606;-64
2024/01/08 04:27:19;;;;;;;5.93;3.97;;;;;;;;;;4999133;28;93021;-64
2024/01/08 04:29:45;;;;;;;10.45;4.28;;;;;;;;;;4999936;28;96980;-65
2024/01/08 04:32:12;;;;;;;8.40;4.32;;;;;;;;;;5001378;28;92737;-64
2024/01/08 04:34:38;;;;;;;6.47;4.35;;;;;;;;;;5006345;28;92892;-64
2024/01/08 04:37:05;;;;;;;7.10;4.35;;;;;;;;;;5000816;28;93446;-65
2024/01/08 04:39:31;;;;;;;8.23;4.57;;;;;;;;;;4994698;28;92642;-65
2024/01/08 04:41:57;;;;;;;6.85;4.60;;;;;;;;;;4998535;28;93784;-65
2024/01/08 04:44:24;;;;;;;9.25;4.63;;;;;;;;;;5005998;28;92940;-64
2024/01/08 04:46:50;;;;;;;8.95;4.90;;;;;;;;;;5002000;28;93564;-64
2024/01/08 04:49:17;;;;;;;9.63;5.07;;;;;;;;;;5002976;28;93836;-64
2024/01/08 04:51:44;;;;;;;6.90;4.57;;;;;;;;;;5003016;28;92684;-64
2024/01/08 04:54:11;;;;;;;6.18;4.28;;;;;;;;;;5000434;28;94753;-64
2024/01/08 04:56:37;;;;;;;6.75;4.35;;;;;;;;;;5002161;28;92560;-64
2024/01/08 04:59:03;;;;;;;10.18;5.03;;;;;;;;;;5000781;28;92475;-64
2024/01/08 05:01:35;;;;;;;7.32;4.47;;;;;;;;;;5005658;28;94052;-64
2024/01/08 05:04:01;;;;;;;8.35;4.45;;;;;;;;;;4994311;28;94759;-64
2024/01/08 05:06:28;;;;;;;7.15;4.18;;;;;;;;;;5008314;28;92466;-63
2024/01/08 05:08:54;;;;;;;9.98;4.65;;;;;;;;;;5002316;28;94720;-65
2024/01/08 05:11:20;;;;;;;6.70;4.57;;;;;;;;;;4997687;28;91844;-64
2024/01/08 05:13:47;;;;;;;9.40;5.30;;;;;;;;;;5002447;28;92691;-64
2024/01/08 05:16:13;;;;;;;8.68;5.10;;;;;;;;;;5002403;28;93448;-64
2024/01/08 05:18:40;;;;;;;6.30;4.53;;;;;;;;;;4997299;28;95096;-64
2024/01/08 05:21:07;;;;;;;9.07;4.78;;;;;;;;;;5002545;28;95520;-64
2024/01/08 05:23:34;;;;;;;10.55;4.85;;;;;;;;;;5000380;28;94937;-64
2024/01/08 05:26:01;;;;;;;8.48;4.82;;;;;;;;;;5004983;28;92376;-65
2024/01/08 05:28:28;;;;;;;9.15;5.25;;;;;;;;;;5002819;28;93082;-64
2024/01/08 05:30:55;;;;;;;9.00;5.20;;;;;;;;;;5003468;28;92660;-64
2024/01/08 05:33:22;;;;;;;9.57;5.28;;;;;;;;;;5001276;28;93381;-65
2024/01/08 05:35:49;;;;;;;9.38;4.63;;;;;;;;;;5001788;28;92924;-64
2024/01/08 05:38:15;;;;;;;14.55;5.00;;;;;;;;;;5002029;28;94091;-65
2024/01/08 05:40:42;;;;;;;9.40;4.93;;;;;;;;;;4998524;28;93160;-64
2024/01/08 05:43:08;;;;;;;7.55;5.05;;;;;;;;;;4998576;28;95957;-64
2024/01/08 05:45:34;;;;;;;8.15;5.07;;;;;;;;;;4995464;28;92550;-65
2024/01/08 05:48:01;;;;;;;7.95;5.07;;;;;;;;;;5001212;28;93121;-64
2024/01/08 05:50:27;;;;;;;9.18;4.40;;;;;;;;;;5010650;28;94906;-64
2024/01/08 05:52:54;;;;;;;10.93;5.60;;;;;;;;;;5002514;28;93608;-65
2024/01/08 05:55:20;;;;;;;15.75;5.57;;;;;;;;;;5001695;28;93492;-65
2024/01/08 05:57:47;;;;;;;6.60;4.72;;;;;;;;;;4994911;28;92507;-65
2024/01/08 06:00:15;;;;;;;18.30;5.60;;;;;;;;;;4999360;28;93209;-65
2024/01/08 06:02:41;;;;;;;7.53;5.05;;;;;;;;;;5004727;28;94371;-65
2024/01/08 06:05:08;;;;;;;13.85;5.30;;;;;;;;;;5000334;28;92753;-64
2024/01/08 06:07:36;;;;;;;10.50;5.50;;;;;;;;;;4996922;28;95399;-65
2024/01/08 06:10:03;;;;;;;9.00;5.45;;;;;;;;;;5004769;28;94852;-64
2024/01/08 06:12:29;;;;;;;8.07;5.43;;;;;;;;;;4999516;28;93097;-65
2024/01/08 06:14:56;;;;;;;9.80;5.93;;;;;;;;;;5002970;28;93444;-65
2024/01/08 06:17:22;;;;;;;10.45;5.18;;;;;;;;;;5001491;28;92432;-65
2024/01/08 06:19:49;;;;;;;11.02;5.50;;;;;;;;;;5003112;28;93435;-64
2024/01/08 06:22:15;;;;;;;10.10;5.05;;;;;;;;;;5002264;28;92551;-65
2024/01/08 06:24:41;;;;;;;8.07;5.28;;;;;;;;;;5003347;28;91802;-73
2024/01/08 06:27:08;;;;;;;7.43;5.22;;;;;;;;;;5003090;28;93494;-74
2024/01/08 06:29:34;;;;;;;8.32;5.57;;;;;;;;;;5003062;28;92565;-74
2024/01/08 06:32:00;;;;;;;11.02;5.70;;;;;;;;;;5002720;28;94899;-74
2024/01/08 06:34:27;;;;;;;10.93;6.20;;;;;;;;;;4997395;28;96038;-72
2024/01/08 06:36:53;;;;;;;11.75;6.05;;;;;;;;;;4998294;28;92737;-73
2024/01/08 06:39:20;;;;;;;8.10;5.15;;;;;;;;;;5000241;28;93600;-74
2024/01/08 06:41:46;;;;;;;8.38;5.45;;;;;;;;;;5001813;28;92508;-73
2024/01/08 06:44:13;;;;;;;11.10;5.97;;;;;;;;;;5000816;28;92596;-74
2024/01/08 06:46:39;;;;;;;8.30;5.15;;;;;;;;;;4998440;28;94056;-74
2024/01/08 06:49:06;;;;;;;9.15;5.63;;;;;;;;;;4999996;28;92729;-74
2024/01/08 06:51:37;;;;;;;7.72;5.10;;;;;;;;;;5003683;28;92512;-74
2024/01/08 06:54:03;;;;;;;8.63;5.00;;;;;;;;;;4996964;28;94518;-74
2024/01/08 06:56:30;;;;;;;8.93;5.70;;;;;;;;;;4998001;28;94949;-73
2024/01/08 06:58:56;;;;;;;8.40;5.47;;;;;;;;;;5003700;28;95415;-74
2024/01/08 07:01:23;;;;;;;9.27;5.65;;;;;;;;;;5002971;28;92466;-72
2024/01/08 07:03:49;;;;;;;6.97;4.90;;;;;;;;;;4995560;28;92541;-71
2024/01/08 07:06:15;;;;;;;9.07;4.85;;;;;;;;;;5000607;28;92492;-74
2024/01/08 07:08:45;;;;;;;8.23;4.97;;;;;;;;;;4996731;28;93626;-74
2024/01/08 07:11:24;;;;;;;8.20;4.70;;;;;;;;;;5002753;28;92613;-74
2024/01/08 07:13:51;;;;;;;7.65;4.63;;;;;;;;;;4999890;28;93119;-74
2024/01/08 07:16:18;;;;;;;7.10;4.60;;;;;;;;;;5001281;28;93402;-72
2024/01/08 07:18:45;;;;;;;10.77;4.93;;;;;;;;;;5002034;28;93150;-73
2024/01/08 07:21:16;;;;;;;8.30;4.72;;;;;;;;;;5001154;28;95771;-73
2024/01/08 07:23:43;;;;;;;10.18;5.18;;;;;;;;;;5001116;28;92752;-74
2024/01/08 07:26:09;;;;;;;7.88;4.60;;;;;;;;;;5000447;28;93186;-75
2024/01/08 07:28:36;;;;;;;8.18;4.75;;;;;;;;;;5000501;28;93431;-74
2024/01/08 07:31:05;;;;;;;9.80;5.18;;;;;;;;;;5034299;27;92634;-75
2024/01/08 07:33:33;;;;;;;10.38;5.03;;;;;;;;;;4998584;28;93393;-74
2024/01/08 07:36:00;;;;;;;10.07;5.00;;;;;;;;;;5002465;28;96569;-74
2024/01/08 07:38:27;;;;;;;10.32;5.47;;;;;;;;;;5007622;28;91738;-74
2024/01/08 07:40:53;;;;;;;8.73;4.70;;;;;;;;;;4997546;28;93421;-74
2024/01/08 07:43:20;;;;;;;7.70;4.90;;;;;;;;;;4999546;28;92508;-73
2024/01/08 07:45:46;;;;;;;7.50;4.60;;;;;;;;;;4998628;28;94900;-74
2024/01/08 07:48:13;;;;;;;6.43;4.28;;;;;;;;;;4999106;28;93431;-74
2024/01/08 07:50:39;;;;;;;10.85;4.80;;;;;;;;;;4997255;28;92476;-71
2024/01/08 07:53:06;;;;;;;10.27;4.35;;;;;;;;;;5000973;28;94128;-74
2024/01/08 07:55:32;;;;;;;5.90;4.45;;;;;;;;;;5000665;28;93482;-73
2024/01/08 07:57:59;;;;;;;4.40;3.35;;;;;;;;;;4996675;28;92439;-72
2024/01/08 08:00:25;;;;;;;10.45;4.53;;;;;;;;;;4998703;28;93189;-74
2024/01/08 08:02:52;;;;;;;9.68;4.40;;;;;;;;;;5000599;28;91699;-72
2024/01/08 08:05:19;;;;;;;8.70;4.55;;;;;;;;;;5002786;28;92295;-72
2024/01/08 08:07:45;;;;;;;6.20;4.55;;;;;;;;;;5002097;28;96247;-73
2024/01/08 08:10:12;;;;;;;7.47;3.78;;;;;;;;;;4999281;28;95104;-73
2024/01/08 08:12:39;;;;;;;7.80;4.13;;;;;;;;;;5002020;28;95464;-71
2024/01/08 08:15:05;;;;;;;9.05;3.95;;;;;;;;;;5000307;28;96679;-73
2024/01/08 08:17:31;;;;;;;7.35;4.30;;;;;;;;;;5002472;28;93087;-69
2024/01/08 08:19:58;;;;;;;8.77;3.97;;;;;;;;;;5006800;28;93452;-73
2024/01/08 08:22:24;;;;;;;5.93;3.80;;;;;;;;;;4999401;28;92411;-73
2024/01/08 08:24:51;;;;;;;9.90;3.60;;;;;;;;;;5004971;28;93126;-71
2024/01/08 08:27:17;;;;;;;7.05;4.30;;;;;;;;;;5001893;28;93576;-71
2024/01/08 08:29:45;;;;;;;7.18;4.03;;;;;;;;;;5003069;28;93510;-71
2024/01/08 08:32:12;;;;;;;5.57;3.92;;;;;;;;;;5002912;28;93550;-69
2024/01/08 08:34:39;;;;;;;5.75;4.10;;;;;;;;;;5002305;28;96719;-70
2024/01/08 08:37:08;;;;;;;7.13;4.03;;;;;;;;;;5006841;28;92513;-70
2024/01/08 08:39:37;;;;;;;4.88;3.15;;;;;;;;;;5003827;28;94524;-70
2024/01/08 08:42:04;;;;;;;5.00;3.67;;;;;;;;;;5006647;28;93758;-71
2024/01/08 08:44:30;;;;;;;5.70;3.80;;;;;;;;;;5000004;28;93141;-70
2024/01/08 08:46:57;;;;;;;6.28;3.67;;;;;;;;;;4998846;28;93791;-65
2024/01/08 08:49:24;;;;;;;8.95;3.50;;;;;;;;;;5004699;28;92465;-65
2024/01/08 08:51:54;;;;;;;;;;;;;;;;;;5006359;28;95777;-65
2024/01/08 08:54:21;;;;;;;5.18;3.88;;;;;;;;;;5005919;28;122956;-65
2024/01/08 08:56:47;;;;;;;7.45;4.22;;;;;;;;;;5000708;28;92612;-66
2024/01/08 08:59:13;;;;;;;5.40;3.78;;;;;;;;;;5004204;28;94853;-66
2024/01/08 09:01:43;;;;;;;7.85;4.22;;;;;;;;;;5003824;28;95142;-66
2024/01/08 09:04:09;;;;;;;6.25;3.97;;;;;;;;;;5008100;28;92463;-64
2024/01/08 09:06:36;;;;;;;8.48;4.00;;;;;;;;;;5001759;28;93574;-65
2024/01/08 09:09:03;;;;;;;6.53;4.03;;;;;;;;;;5002650;28;92902;-66
2024/01/08 09:11:32;;;;;;;5.80;4.00;;;;;;;;;;5002792;28;93198;-65
2024/01/08 09:13:58;;;;;;;6.97;4.20;;;;;;;;;;5003514;28;93576;-64
2024/01/08 09:16:26;;;;;;;6.60;4.18;;;;;;;;;;5001496;28;91741;-64
2024/01/08 09:18:52;;;;;;;6.38;4.07;;;;;;;;;;4994969;28;95571;-65
2024/01/08 09:21:19;;;;;;;6.18;4.13;;;;;;;;;;5002646;28;93459;-63
2024/01/08 09:23:45;;;;;;;4.78;4.13;;;;;;;;;;5004187;28;95026;-66
2024/01/08 09:26:12;;;;;;;7.53;4.10;;;;;;;;;;5000032;28;96413;-63
2024/01/08 09:28:38;;;;;;;7.13;4.40;;;;;;;;;;4999284;28;92372;-64
2024/01/08 09:31:05;;;;;;;8.23;4.10;;;;;;;;;;5002536;28;92412;-64
2024/01/08 09:33:32;;;;;;;5.93;4.13;;;;;;;;;;5002527;28;93372;-64
2024/01/08 09:35:58;;;;;;;6.28;3.90;;;;;;;;;;4998853;28;92696;-67
2024/01/08 09:38:25;;;;;;;5.75;4.15;;;;;;;;;;4987753;28;94101;-67
2024/01/08 09:40:51;;;;;;;5.40;4.03;;;;;;;;;;5000367;28;92991;-63
2024/01/08 09:43:21;;;;;;;7.57;4.15;;;;;;;;;;5001263;28;92591;-65
2024/01/08 09:46:00;;;;;;;6.18;4.00;;;;;;;;;;5003328;28;93139;-66
2024/01/08 09:48:27;;;;;;;9.77;4.20;;;;;;;;;;5001972;28;95840;-66
2024/01/08 09:50:53;;;;;;;7.03;4.00;;;;;;;;;;4995208;28;96681;-65
2024/01/08 09:53:20;;;;;;;8.18;4.30;;;;;;;;;;4997085;28;94059;-66
2024/01/08 09:55:46;;;;;;;8.48;4.45;;;;;;;;;;5007281;28;92403;-67
2024/01/08 09:58:13;;;;;;;7.53;4.47;;;;;;;;;;5001839;28;93155;-67
2024/01/08 10:00:42;;;;;;;6.72;4.07;;;;;;;;;;5002152;28;92561;-66
2024/01/08 10:03:09;;;;;;;11.63;4.43;;;;;;;;;;5001956;28;92552;-69
2024/01/08 10:05:36;;;;;;;6.78;4.35;;;;;;;;;;5001392;28;93166;-67
2024/01/08 10:08:02;;;;;;;6.80;4.43;;;;;;;;;;5002381;28;93765;-68
2024/01/08 10:10:29;;;;;;;4.82;3.78;;;;;;;;;;5007423;28;92496;-67
2024/01/08 10:12:55;;;;;;;6.97;4.15;;;;;;;;;;4999426;28;94912;-68
2024/01/08 10:15:22;;;;;;;5.85;4.15;;;;;;;;;;5004603;28;92658;-68
2024/01/08 10:17:49;;;;;;;7.20;4.05;;;;;;;;;;5001575;28;93295;-67
2024/01/08 10:20:17;;;;;;;6.68;4.03;;;;;;;;;;4997586;28;94472;-66
2024/01/08 10:22:45;;;;;;;7.35;4.40;;;;;;;;;;4999374;28;92577;-67
2024/01/08 10:25:18;;;;;;;6.55;4.13;;;;;;;;;;5001890;28;93495;-68
2024/01/08 10:27:45;;;;;;;6.65;4.20;;;;;;;;;;4990767;28;93688;-66
2024/01/08 10:30:11;;;;;;;8.90;4.18;;;;;;;;;;5004617;28;91905;-68
2024/01/08 10:32:38;;;;;;;5.85;4.32;;;;;;;;;;4999082;28;93732;-66
2024/01/08 10:35:04;;;;;;;6.22;3.95;;;;;;;;;;5000520;28;92477;-65
2024/01/08 10:37:32;;;;;;;7.82;4.72;;;;;;;;;;5002721;28;95358;-65
2024/01/08 10:39:59;;;;;;;8.65;4.15;;;;;;;;;;5002623;28;93333;-68
2024/01/08 10:42:26;;;;;;;8.93;4.82;;;;;;;;;;4999205;28;92559;-67
2024/01/08 10:44:52;;;;;;;8.30;4.60;;;;;;;;;;4996135;28;93996;-67
2024/01/08 10:47:25;;;;;;;5.32;4.18;;;;;;;;;;5001072;28;93374;-67
2024/01/08 10:49:59;;;;;;;5.70;4.18;;;;;;;;;;4997501;28;92556;-67
2024/01/08 10:52:30;;;;;;;8.55;4.05;;;;;;;;;;4998499;28;93794;-67
2024/01/08 10:55:00;;;;;;;9.38;4.57;;;;;;;;;;4997179;28;92088;-66
2024/01/08 10:57:47;;;;;;;6.57;4.68;;;;;;;;;;5031358;27;92684;-65
2024/01/08 11:00:14;;;;;;;8.23;4.45;;;;;;;;;;5000400;28;94510;-66
2024/01/08 11:02:40;;;;;;;5.75;4.18;;;;;;;;;;4999170;28;94932;-66
2024/01/08 11:05:08;;;;;;;8.65;4.70;;;;;;;;;;5006223;28;95647;-65
2024/01/08 11:07:36;;;;;;;6.15;4.38;;;;;;;;;;5003517;28;93718;-65
2024/01/08 11:10:06;;;;;;;7.18;4.25;;;;;;;;;;4998296;28;95358;-66
2024/01/08 11:12:36;;;;;;;7.32;4.30;;;;;;;;;;5009187;28;93127;-65
2024/01/08 11:15:03;;;;;;;7.20;4.37;;;;;;;;;;5003630;28;93906;-65
2024/01/08 11:17:30;;;;;;;7.00;4.20;;;;;;;;;;5002603;28;93167;-65
2024/01/08 11:19:58;;;;;;;4.05;3.58;;;;;;;;;;5003233;28;92700;-66
2024/01/08 11:22:24;;;;;;;7.68;4.57;;;;;;;;;;5002511;28;92546;-66
2024/01/08 11:24:55;;;;;;;7.07;3.90;;;;;;;;;;5002606;28;93143;-65
2024/01/08 11:27:22;;;;;;;5.88;3.70;;;;;;;;;;4998537;28;95818;-66
2024/01/08 11:29:55;;;;;;;6.63;4.32;;;;;;;;;;5000848;28;92436;-65
2024/01/08 11:32:35;;;;;;;6.43;3.47;;;;;;;;;;4998137;28;93205;-66
2024/01/08 11:35:07;;;;;;;3.72;3.22;;;;;;;;;;5002520;28;93580;-65
2024/01/08 11:37:38;;;;;;;6.78;3.72;;;;;;;;;;5007930;28;92676;-66
2024/01/08 11:40:17;;;;;;;6.53;3.80;;;;;;;;;;5000123;28;94472;-65
2024/01/08 11:42:45;;;;;;;5.63;3.50;;;;;;;;;;4996792;28;92501;-66
2024/01/08 11:45:12;;;;;;;6.00;3.45;;;;;;;;;;5003170;28;93222;-65
2024/01/08 11:47:39;;;;;;;5.50;3.45;;;;;;;;;;5001474;28;93902;-65
2024/01/08 11:50:06;;;;;;;4.05;3.42;;;;;;;;;;5001162;28;92442;-65
2024/01/08 11:52:33;;;;;;;7.55;3.58;;;;;;;;;;4999645;28;94787;-66
2024/01/08 11:55:00;;;;;;;4.97;3.50;;;;;;;;;;5001772;28;93452;-66
2024/01/08 11:57:26;;;;;;;4.72;2.67;;;;;;;;;;5001758;28;92534;-65
2024/01/08 11:59:53;;;;;;;8.43;3.45;;;;;;;;;;5005321;28;93142;-66
2024/01/08 12:02:20;;;;;;;3.80;2.97;;;;;;;;;;5000844;28;92422;-66
2024/01/08 12:04:56;;;;;;;5.07;3.22;;;;;;;;;;4997104;28;94334;-65
2024/01/08 12:07:24;;;;;;;5.20;3.00;;;;;;;;;;4993227;28;94482;-66
2024/01/08 12:09:50;;;;;;;3.17;2.83;;;;;;;;;;5000860;28;91719;-66
2024/01/08 12:12:17;;;;;;;6.28;2.97;;;;;;;;;;4996646;28;92689;-65
2024/01/08 12:14:44;;;;;;;5.80;3.60;;;;;;;;;;5001578;28;93361;-66
2024/01/08 12:17:12;;;;;;;5.43;3.40;;;;;;;;;;4998303;28;95098;-69
2024/01/08 12:19:44;;;;;;;4.65;3.40;;;;;;;;;;5005439;28;95497;-69
2024/01/08 12:22:11;;;;;;;4.97;3.47;;;;;;;;;;5000682;28;92449;-69
2024/01/08 12:24:41;;;;;;;4.95;3.42;;;;;;;;;;5000937;28;94130;-69
2024/01/08 12:27:08;;;;;;;10.30;2.97;;;;;;;;;;4999325;28;93890;-69
2024/01/08 12:29:38;;;;;;;10.90;3.67;;;;;;;;;;5001740;28;92546;-70
2024/01/08 12:32:05;;;;;;;6.22;3.22;;;;;;;;;;4999982;28;93291;-69
2024/01/08 12:34:31;;;;;;;5.47;3.08;;;;;;;;;;5002314;28;92925;-70
2024/01/08 12:37:01;;;;;;;4.80;3.20;;;;;;;;;;4991284;28;95769;-70
2024/01/08 12:39:29;;;;;;;5.32;3.15;;;;;;;;;;5000259;28;93147;-69
2024/01/08 12:41:58;;;;;;;4.32;2.97;;;;;;;;;;5000630;28;95915;-69
2024/01/08 12:44:26;;;;;;;3.83;2.80;;;;;;;;;;5003455;28;95537;-69
2024/01/08 12:46:53;;;;;;;3.60;2.60;;;;;;;;;;4999702;28;94888;-69
2024/01/08 12:49:25;;;;;;;;;;;;;;;;;;4996293;28;92494;-69
2024/01/08 12:51:53;;;;;;;3.97;3.10;;;;;;;;;;4997219;28;123554;-70
2024/01/08 12:54:19;;;;;;;4.28;2.45;;;;;;;;;;5002605;28;94479;-69
2024/01/08 12:56:45;;;;;;;4.13;2.83;;;;;;;;;;5006673;28;92521;-70
2024/01/08 12:59:13;;;;;;;5.63;3.30;;;;;;;;;;5004508;28;95420;-70
2024/01/08 13:01:43;;;;;;;3.22;2.88;;;;;;;;;;5006231;28;93431;-70
2024/01/08 13:04:11;;;;;;;3.92;3.08;;;;;;;;;;5006241;28;92847;-69
2024/01/08 13:06:39;;;;;;;3.22;2.80;;;;;;;;;;5002698;28;95776;-70
2024/01/08 13:09:07;;;;;;;3.78;2.83;;;;;;;;;;5001263;28;92733;-70
2024/01/08 13:11:35;;;;;;;3.17;2.90;;;;;;;;;;5003716;28;93426;-69
2024/01/08 13:14:03;;;;;;;3.20;2.53;;;;;;;;;;5005424;28;93657;-69
2024/01/08 13:16:33;;;;;;;3.13;2.83;;;;;;;;;;5002965;28;92397;-69
2024/01/08 13:18:59;;;;;;;4.47;2.92;;;;;;;;;;5003405;28;93286;-70
2024/01/08 13:21:26;;;;;;;4.43;2.90;;;;;;;;;;5006426;28;93435;-69
2024/01/08 13:23:52;;;;;;;6.00;3.13;;;;;;;;;;5003516;28;91704;-69
2024/01/08 13:26:19;;;;;;;4.53;3.08;;;;;;;;;;5006285;28;93115;-70
2024/01/08 13:28:45;;;;;;;4.10;2.80;;;;;;;;;;5000875;28;92634;-66
2024/01/08 13:31:12;;;;;;;4.32;3.05;;;;;;;;;;5002410;28;94878;-66
2024/01/08 13:33:39;;;;;;;3.95;2.88;;;;;;;;;;5001987;28;93580;-66
2024/01/08 13:36:06;;;;;;;4.55;3.28;;;;;;;;;;5005934;28;92621;-66
2024/01/08 13:38:32;;;;;;;3.75;2.80;;;;;;;;;;5005652;28;93142;-66
2024/01/08 13:41:00;;;;;;;6.43;3.08;;;;;;;;;;5002618;28;93203;-66
2024/01/08 13:43:27;;;;;;;3.25;2.83;;;;;;;;;;5006528;28;92462;-66
2024/01/08 13:45:54;;;;;;;7.38;3.17;;;;;;;;;;4999207;28;93133;-66
2024/01/08 13:48:21;;;;;;;3.35;2.85;;;;;;;;;;5006334;28;92652;-66
2024/01/08 13:50:47;;;;;;;4.57;2.88;;;;;;;;;;5005512;28;92739;-66
2024/01/08 13:53:14;;;;;;;6.05;2.95;;;;;;;;;;5003429;28;93690;-66
2024/01/08 13:55:41;;;;;;;4.18;2.80;;;;;;;;;;5002486;28;94804;-66
2024/01/08 13:58:08;;;;;;;6.30;3.30;;;;;;;;;;5004665;28;96621;-66
2024/01/08 14:00:34;;;;;;;8.02;3.25;;;;;;;;;;5002694;28;93546;-66
2024/01/08 14:03:01;;;;;;;4.10;2.78;;;;;;;;;;5002189;28;92751;-67
2024/01/08 14:05:29;;;;;;;6.05;2.92;;;;;;;;;;5004755;28;93100;-66
2024/01/08 14:07:56;;;;;;;4.85;3.00;;;;;;;;;;5001834;28;93734;-66
2024/01/08 14:10:22;;;;;;;4.50;3.00;;;;;;;;;;5004898;28;92564;-66
2024/01/08 14:12:48;;;;;;;3.83;2.92;;;;;;;;;;5005524;28;91854;-66
2024/01/08 14:15:16;;;;;;;6.07;2.83;;;;;;;;;;5003563;28;92397;-66
2024/01/08 14:17:43;;;;;;;4.30;3.20;;;;;;;;;;5004133;28;93117;-66
2024/01/08 14:20:10;;;;;;;3.63;2.70;;;;;;;;;;5000731;28;95969;-66
2024/01/08 14:22:39;;;;;;;5.13;3.03;;;;;;;;;;5004295;28;92538;-66
2024/01/08 14:25:07;;;;;;;3.50;2.88;;;;;;;;;;5002102;28;93138;-66
2024/01/08 14:27:35;;;;;;;5.38;3.17;;;;;;;;;;5000400;28;93389;-66
2024/01/08 14:30:03;;;;;;;3.47;2.72;;;;;;;;;;5008059;28;92541;-66
2024/01/08 14:32:31;;;;;;;8.10;4.38;;;;;;;;;;5002471;28;94521;-66
2024/01/08 14:34:58;;;;;;;11.60;5.10;;;;;;;;;;5004990;28;92370;-66
2024/01/08 14:37:28;;;;;;;4.38;3.30;;;;;;;;;;5002759;28;92351;-66
2024/01/08 14:39:56;;;;;;;4.90;3.22;;;;;;;;;;5001064;28;93428;-66
2024/01/08 14:42:26;;;;;;;5.03;2.80;;;;;;;;;;5005104;28;92558;-66